Time;durP1;ratioP1;P1;durP2;ratioP2;P2;SDS_P1;SDS_P2;PMS_P1;PMS_P2;Temp;Humidity;BMP_temperature;BMP_pressure;BME280_temperature;BME280_humidity;BME280_pressure;Samples;Min_cycle;Max_cycle;Signal;HPM_P1;HPM_P2
2023/02/28 00:01:20;;;;;;;3.75;1.40;;;;;;;;;;5105634;27;20016;-75
2023/02/28 00:03:47;;;;;;;7.88;1.70;;;;;;;;;;5107900;27;20028;-76
2023/02/28 00:06:13;;;;;;;4.93;1.88;;;;;;;;;;5098991;27;20039;-76
2023/02/28 00:08:39;;;;;;;3.65;1.70;;;;;;;;;;5099101;27;20505;-76
2023/02/28 00:11:06;;;;;;;4.10;1.77;;;;;;;;;;5097961;27;20039;-76
2023/02/28 00:13:35;;;;;;;2.53;1.63;;;;;;;;;;5107153;27;20027;-75
2023/02/28 00:16:27;;;;;;;3.22;1.50;;;;;;;;;;5101123;27;20019;-76
2023/02/28 00:18:53;;;;;;;;;;;;;;;;;;5100489;27;20062;-76
2023/02/28 00:21:20;;;;;;;4.80;2.00;;;;;;;;;;5100682;27;19951;-77
2023/02/28 00:23:46;;;;;;;5.28;1.90;;;;;;;;;;5100696;27;20131;-78
2023/02/28 00:26:12;;;;;;;6.72;1.80;;;;;;;;;;5097967;27;20062;-75
2023/02/28 00:28:39;;;;;;;7.22;1.65;;;;;;;;;;5092977;27;20024;-76
2023/02/28 00:31:05;;;;;;;5.15;1.95;;;;;;;;;;5100003;27;20123;-75
2023/02/28 00:33:31;;;;;;;3.05;1.85;;;;;;;;;;5103388;27;20386;-76
2023/02/28 00:36:04;;;;;;;5.25;1.80;;;;;;;;;;5100755;27;20138;-74
2023/02/28 00:38:31;;;;;;;4.75;1.85;;;;;;;;;;5100094;27;20047;-75
2023/02/28 00:40:58;;;;;;;3.28;1.67;;;;;;;;;;5111590;27;20027;-74
2023/02/28 00:43:24;;;;;;;7.13;2.28;;;;;;;;;;5107225;27;20020;-75
2023/02/28 00:45:50;;;;;;;5.30;2.13;;;;;;;;;;5097918;27;20019;-75
2023/02/28 00:48:16;;;;;;;5.50;1.83;;;;;;;;;;5102906;28;20088;-75
2023/02/28 00:50:43;;;;;;;2.90;2.00;;;;;;;;;;5100734;27;20109;-74
2023/02/28 00:53:09;;;;;;;4.80;1.70;;;;;;;;;;5105642;27;20614;-75
2023/02/28 00:55:35;;;;;;;3.53;1.60;;;;;;;;;;5095567;27;20039;-74
2023/02/28 00:58:01;;;;;;;5.50;1.80;;;;;;;;;;5102373;27;20122;-74
2023/02/28 01:00:27;;;;;;;4.40;1.60;;;;;;;;;;5101495;28;20020;-73
2023/02/28 01:02:54;;;;;;;6.45;1.77;;;;;;;;;;5108845;27;20121;-74
2023/02/28 01:05:20;;;;;;;4.50;1.83;;;;;;;;;;5103366;27;20018;-75
2023/02/28 01:07:46;;;;;;;3.97;1.63;;;;;;;;;;5098547;28;20099;-74
2023/02/28 01:10:12;;;;;;;3.78;1.50;;;;;;;;;;5100997;28;20115;-74
2023/02/28 01:12:39;;;;;;;4.72;1.58;;;;;;;;;;5099155;28;20109;-74
2023/02/28 01:15:05;;;;;;;3.20;1.65;;;;;;;;;;5101459;28;20637;-75
2023/02/28 01:17:31;;;;;;;8.95;1.90;;;;;;;;;;5097084;28;20035;-76
2023/02/28 01:19:57;;;;;;;4.22;1.48;;;;;;;;;;5096172;28;20020;-74
2023/02/28 01:22:24;;;;;;;6.82;1.52;;;;;;;;;;5102735;28;20640;-74
2023/02/28 01:24:50;;;;;;;9.80;2.40;;;;;;;;;;5092930;28;20755;-74
2023/02/28 01:27:16;;;;;;;5.38;1.83;;;;;;;;;;5101367;28;20088;-75
2023/02/28 01:29:42;;;;;;;11.88;1.83;;;;;;;;;;5095696;28;20063;-73
2023/02/28 01:32:08;;;;;;;7.80;1.50;;;;;;;;;;5101342;28;20055;-74
2023/02/28 01:34:35;;;;;;;10.80;1.23;;;;;;;;;;5106073;28;20019;-75
2023/02/28 01:37:01;;;;;;;6.93;1.30;;;;;;;;;;5100306;28;20039;-76
2023/02/28 01:39:27;;;;;;;4.55;1.40;;;;;;;;;;5094992;27;20024;-74
2023/02/28 01:41:53;;;;;;;3.63;1.98;;;;;;;;;;5097689;27;20186;-75
2023/02/28 01:44:38;;;;;;;7.13;2.95;;;;;;;;;;5093024;28;20023;-74
2023/02/28 01:47:05;;;;;;;6.13;1.98;;;;;;;;;;5095067;28;20085;-74
2023/02/28 01:49:31;;;;;;;9.07;1.65;;;;;;;;;;5104127;28;20023;-75
2023/02/28 01:51:57;;;;;;;3.15;1.42;;;;;;;;;;5098899;28;20090;-74
2023/02/28 01:54:26;;;;;;;5.18;1.58;;;;;;;;;;5099597;28;20027;-74
2023/02/28 01:57:06;;;;;;;8.32;1.60;;;;;;;;;;5101946;28;20047;-74
2023/02/28 01:59:51;;;;;;;4.60;1.75;;;;;;;;;;5106298;28;20031;-75
2023/02/28 02:02:20;;;;;;;4.63;1.80;;;;;;;;;;5105921;28;20015;-76
2023/02/28 02:04:50;;;;;;;5.03;1.70;;;;;;;;;;5096733;27;20057;-74
2023/02/28 02:07:17;;;;;;;9.68;1.80;;;;;;;;;;5108312;27;20746;-74
2023/02/28 02:09:43;;;;;;;9.20;1.85;;;;;;;;;;5110790;27;20561;-74
2023/02/28 02:12:29;;;;;;;10.52;1.90;;;;;;;;;;5107469;27;20042;-75
2023/02/28 02:14:58;;;;;;;8.43;2.08;;;;;;;;;;5088405;27;20045;-74
2023/02/28 02:17:42;;;;;;;8.32;1.80;;;;;;;;;;5101285;27;20107;-75
2023/02/28 02:20:15;;;;;;;4.57;1.90;;;;;;;;;;5111239;27;20106;-75
2023/02/28 02:23:08;;;;;;;8.10;2.00;;;;;;;;;;5103557;27;20027;-74
2023/02/28 02:25:52;;;;;;;6.03;1.80;;;;;;;;;;5106930;27;20066;-76
2023/02/28 02:28:51;;;;;;;6.43;1.73;;;;;;;;;;5108351;27;20127;-75
2023/02/28 02:31:19;;;;;;;9.75;1.60;;;;;;;;;;5076702;27;20122;-75
2023/02/28 02:34:04;;;;;;;8.30;1.70;;;;;;;;;;5103997;27;20027;-74
2023/02/28 02:36:47;;;;;;;13.98;3.05;;;;;;;;;;5099425;27;20659;-74
2023/02/28 02:39:13;;;;;;;8.52;2.15;;;;;;;;;;5106441;27;20023;-74
2023/02/28 02:41:57;;;;;;;11.88;2.10;;;;;;;;;;5101094;27;20112;-75
2023/02/28 02:44:27;;;;;;;17.05;2.45;;;;;;;;;;5093546;27;20031;-74
2023/02/28 02:47:03;;;;;;;8.38;1.85;;;;;;;;;;5104268;27;20100;-75
2023/02/28 02:49:32;;;;;;;17.00;2.70;;;;;;;;;;5109607;27;20026;-75
2023/02/28 02:52:01;;;;;;;6.13;1.67;;;;;;;;;;5101912;27;20091;-74
2023/02/28 02:54:29;;;;;;;11.45;1.90;;;;;;;;;;5099752;27;20107;-75
2023/02/28 02:56:58;;;;;;;16.50;2.28;;;;;;;;;;5101902;27;20052;-74
2023/02/28 02:59:25;;;;;;;12.38;1.70;;;;;;;;;;5102101;27;20038;-75
2023/02/28 03:01:54;;;;;;;9.02;1.85;;;;;;;;;;5106065;27;20023;-74
2023/02/28 03:04:21;;;;;;;13.98;3.05;;;;;;;;;;5099723;27;20212;-74
2023/02/28 03:06:47;;;;;;;13.48;2.53;;;;;;;;;;5103989;27;20039;-76
2023/02/28 03:09:14;;;;;;;10.07;1.92;;;;;;;;;;5103204;27;20153;-76
2023/02/28 03:11:41;;;;;;;9.15;2.10;;;;;;;;;;5103815;27;20050;-75
2023/02/28 03:14:09;;;;;;;10.60;2.13;;;;;;;;;;5098826;27;20768;-74
2023/02/28 03:16:54;;;;;;;8.88;1.40;;;;;;;;;;5097665;27;20066;-75
2023/02/28 03:19:20;;;;;;;12.68;3.88;;;;;;;;;;5090765;28;20019;-75
2023/02/28 03:22:11;;;;;;;11.73;2.50;;;;;;;;;;5097539;27;20619;-75
2023/02/28 03:24:57;;;;;;;9.50;2.30;;;;;;;;;;5101884;27;20168;-75
2023/02/28 03:27:42;;;;;;;8.48;1.80;;;;;;;;;;5096977;27;20028;-75
2023/02/28 03:30:16;;;;;;;12.57;2.15;;;;;;;;;;5100426;27;20039;-75
2023/02/28 03:33:04;;;;;;;13.00;1.77;;;;;;;;;;5096730;27;20020;-75
2023/02/28 03:35:39;;;;;;;10.63;2.03;;;;;;;;;;5089442;27;20036;-75
2023/02/28 03:38:25;;;;;;;10.45;2.05;;;;;;;;;;5102883;27;20130;-74
2023/02/28 03:40:54;;;;;;;9.95;2.00;;;;;;;;;;5104313;27;20173;-74
2023/02/28 03:43:25;;;;;;;9.45;2.65;;;;;;;;;;5102063;27;20134;-75
2023/02/28 03:45:53;;;;;;;8.25;1.95;;;;;;;;;;5104575;27;20618;-74
2023/02/28 03:48:19;;;;;;;9.30;2.35;;;;;;;;;;5099051;27;20106;-74
2023/02/28 03:50:46;;;;;;;12.18;1.90;;;;;;;;;;5100424;27;20103;-75
2023/02/28 03:53:19;;;;;;;16.27;1.95;;;;;;;;;;5100561;27;20036;-75
2023/02/28 03:55:48;;;;;;;22.67;2.20;;;;;;;;;;5101774;27;20498;-75
2023/02/28 03:58:38;;;;;;;15.70;2.30;;;;;;;;;;5099956;27;20047;-74
2023/02/28 04:01:09;;;;;;;9.55;2.25;;;;;;;;;;5101540;27;20106;-76
2023/02/28 04:03:36;;;;;;;13.50;3.60;;;;;;;;;;5099004;27;20016;-75
2023/02/28 04:06:03;;;;;;;8.68;1.60;;;;;;;;;;5102032;27;20879;-75
2023/02/28 04:08:29;;;;;;;9.18;1.58;;;;;;;;;;5102711;27;20023;-74
2023/02/28 04:11:15;;;;;;;15.50;2.50;;;;;;;;;;5102715;27;20927;-74
2023/02/28 04:13:41;;;;;;;11.00;1.75;;;;;;;;;;5102562;27;20883;-73
2023/02/28 04:16:11;;;;;;;12.93;1.60;;;;;;;;;;5100143;27;20170;-74
2023/02/28 04:18:38;;;;;;;11.43;1.60;;;;;;;;;;5102279;27;20101;-74
2023/02/28 04:21:04;;;;;;;14.98;2.88;;;;;;;;;;5105796;27;20023;-75
2023/02/28 04:23:31;;;;;;;9.50;2.10;;;;;;;;;;5098532;28;20030;-75
2023/02/28 04:25:57;;;;;;;13.00;1.80;;;;;;;;;;5100973;27;20008;-75
2023/02/28 04:28:23;;;;;;;12.07;1.58;;;;;;;;;;5106289;27;20166;-74
2023/02/28 04:31:00;;;;;;;15.88;2.22;;;;;;;;;;5107077;27;20023;-74
2023/02/28 04:33:26;;;;;;;6.32;1.67;;;;;;;;;;5102851;27;20031;-74
2023/02/28 04:36:02;;;;;;;22.33;2.60;;;;;;;;;;5101237;27;20031;-74
2023/02/28 04:38:29;;;;;;;10.75;1.58;;;;;;;;;;5101327;27;20062;-76
2023/02/28 04:40:57;;;;;;;14.77;2.15;;;;;;;;;;5109852;27;20031;-74
2023/02/28 04:43:23;;;;;;;13.40;1.77;;;;;;;;;;5102281;27;20185;-74
2023/02/28 04:45:50;;;;;;;11.48;2.20;;;;;;;;;;5102811;27;20626;-74
2023/02/28 04:48:16;;;;;;;15.32;2.05;;;;;;;;;;5100824;27;20131;-75
2023/02/28 04:50:42;;;;;;;12.95;2.00;;;;;;;;;;5097626;28;20118;-75
2023/02/28 04:53:08;;;;;;;12.98;2.65;;;;;;;;;;5101896;28;20031;-76
2023/02/28 04:55:34;;;;;;;15.55;2.30;;;;;;;;;;5100501;27;20532;-75
2023/02/28 04:58:01;;;;;;;22.77;2.67;;;;;;;;;;5103897;27;20138;-74
2023/02/28 05:00:27;;;;;;;17.27;2.58;;;;;;;;;;5102570;28;20024;-74
2023/02/28 05:02:53;;;;;;;13.10;1.80;;;;;;;;;;5105515;28;20257;-74
2023/02/28 05:05:19;;;;;;;12.18;2.58;;;;;;;;;;5097325;28;20139;-74
2023/02/28 05:07:45;;;;;;;13.55;2.17;;;;;;;;;;5101057;28;20337;-75
2023/02/28 05:10:12;;;;;;;15.90;2.00;;;;;;;;;;5110426;28;20032;-75
2023/02/28 05:12:38;;;;;;;18.05;2.45;;;;;;;;;;5094653;28;20652;-75
2023/02/28 05:15:05;;;;;;;18.40;2.63;;;;;;;;;;5106259;28;20023;-75
2023/02/28 05:17:31;;;;;;;22.05;3.28;;;;;;;;;;5096471;28;20242;-76
2023/02/28 05:19:58;;;;;;;19.48;1.92;;;;;;;;;;5112284;27;20026;-74
2023/02/28 05:22:24;;;;;;;20.10;2.33;;;;;;;;;;5096044;28;20451;-75
2023/02/28 05:24:50;;;;;;;14.32;2.03;;;;;;;;;;5102393;27;20070;-75
2023/02/28 05:27:16;;;;;;;20.92;4.53;;;;;;;;;;5097561;28;20026;-75
2023/02/28 05:29:45;;;;;;;16.83;3.25;;;;;;;;;;5097577;28;20031;-76
2023/02/28 05:32:14;;;;;;;14.05;3.15;;;;;;;;;;5112055;27;20109;-76
2023/02/28 05:34:40;;;;;;;19.52;2.83;;;;;;;;;;5104715;27;20022;-74
2023/02/28 05:37:07;;;;;;;16.35;2.40;;;;;;;;;;5103963;28;20468;-74
2023/02/28 05:39:33;;;;;;;19.65;2.22;;;;;;;;;;5111459;27;20510;-76
2023/02/28 05:41:59;;;;;;;10.00;1.98;;;;;;;;;;5099076;27;20023;-74
2023/02/28 05:44:25;;;;;;;9.93;2.15;;;;;;;;;;5106474;27;20293;-74
2023/02/28 05:46:52;;;;;;;20.92;2.63;;;;;;;;;;5101522;27;20382;-75
2023/02/28 05:49:18;;;;;;;15.48;2.13;;;;;;;;;;5102487;27;20058;-74
2023/02/28 05:51:44;;;;;;;11.57;2.45;;;;;;;;;;5102310;27;20103;-75
2023/02/28 05:54:10;;;;;;;20.00;2.95;;;;;;;;;;5102624;27;20107;-74
2023/02/28 05:56:38;;;;;;;15.32;2.97;;;;;;;;;;5108510;27;20050;-74
2023/02/28 05:59:05;;;;;;;24.70;3.10;;;;;;;;;;5100823;27;20032;-74
2023/02/28 06:01:31;;;;;;;17.02;4.47;;;;;;;;;;5106096;27;20114;-74
2023/02/28 06:03:58;;;;;;;28.50;2.75;;;;;;;;;;5104826;27;20048;-75
2023/02/28 06:06:24;;;;;;;13.80;2.67;;;;;;;;;;5108639;27;20026;-74
2023/02/28 06:08:50;;;;;;;25.83;3.20;;;;;;;;;;5100652;27;20898;-74
2023/02/28 06:11:17;;;;;;;22.83;3.33;;;;;;;;;;5105838;27;20107;-74
2023/02/28 06:13:43;;;;;;;15.65;2.67;;;;;;;;;;5109915;27;20031;-74
2023/02/28 06:16:12;;;;;;;22.20;4.43;;;;;;;;;;5100118;27;20023;-75
2023/02/28 06:18:39;;;;;;;19.63;3.22;;;;;;;;;;5103648;27;20742;-74
2023/02/28 06:21:05;;;;;;;27.02;3.70;;;;;;;;;;5101625;27;20035;-75
2023/02/28 06:23:31;;;;;;;27.80;3.40;;;;;;;;;;5104964;27;20145;-76
2023/02/28 06:25:58;;;;;;;29.83;4.10;;;;;;;;;;5099199;27;20387;-74
2023/02/28 06:28:25;;;;;;;21.33;4.07;;;;;;;;;;5104435;27;20110;-75
2023/02/28 06:30:51;;;;;;;17.05;3.40;;;;;;;;;;5101435;27;20774;-75
2023/02/28 06:33:17;;;;;;;23.75;4.05;;;;;;;;;;5097737;27;20406;-74
2023/02/28 06:35:52;;;;;;;21.13;4.40;;;;;;;;;;5101635;27;20024;-74
2023/02/28 06:38:19;;;;;;;23.98;3.38;;;;;;;;;;5096578;27;20115;-75
2023/02/28 06:40:45;;;;;;;30.98;4.60;;;;;;;;;;5106066;27;20353;-75
2023/02/28 06:43:13;;;;;;;20.67;4.82;;;;;;;;;;5110381;27;20102;-75
2023/02/28 06:45:42;;;;;;;27.48;5.13;;;;;;;;;;5101627;27;20099;-75
2023/02/28 06:48:08;;;;;;;19.60;4.25;;;;;;;;;;5104133;27;20027;-75
2023/02/28 06:50:35;;;;;;;16.63;2.75;;;;;;;;;;5098461;27;20020;-75
2023/02/28 06:53:01;;;;;;;21.92;3.28;;;;;;;;;;5098189;27;20019;-74
2023/02/28 06:55:27;;;;;;;12.57;3.03;;;;;;;;;;5110768;27;20744;-74
2023/02/28 06:57:54;;;;;;;20.10;4.03;;;;;;;;;;5102061;27;20126;-75
2023/02/28 07:00:21;;;;;;;33.97;5.45;;;;;;;;;;5105337;27;20023;-77
2023/02/28 07:02:47;;;;;;;18.27;4.93;;;;;;;;;;5100543;27;20109;-75
2023/02/28 07:05:14;;;;;;;20.98;3.53;;;;;;;;;;5105940;27;20098;-73
2023/02/28 07:07:43;;;;;;;27.17;4.57;;;;;;;;;;5107114;27;20028;-74
2023/02/28 07:10:11;;;;;;;17.17;3.35;;;;;;;;;;5110910;27;20379;-74
2023/02/28 07:12:37;;;;;;;11.18;2.75;;;;;;;;;;5104633;27;20140;-74
2023/02/28 07:15:04;;;;;;;15.60;3.80;;;;;;;;;;5101381;27;20107;-75
2023/02/28 07:17:30;;;;;;;20.10;4.97;;;;;;;;;;5101757;27;20123;-76
2023/02/28 07:19:57;;;;;;;21.88;4.40;;;;;;;;;;5105530;27;20181;-76
2023/02/28 07:22:23;;;;;;;35.20;7.53;;;;;;;;;;5099848;27;20023;-75
2023/02/28 07:24:49;;;;;;;34.13;7.28;;;;;;;;;;5102714;27;20126;-75
2023/02/28 07:27:23;;;;;;;27.65;5.90;;;;;;;;;;5107145;27;20091;-75
2023/02/28 07:29:49;;;;;;;24.13;7.35;;;;;;;;;;5094315;27;20107;-75
2023/02/28 07:32:16;;;;;;;33.05;11.10;;;;;;;;;;5096207;27;20460;-75
2023/02/28 07:34:42;;;;;;;33.30;13.30;;;;;;;;;;5109762;27;20057;-75
2023/02/28 07:37:09;;;;;;;42.00;15.70;;;;;;;;;;5112145;27;20039;-75
2023/02/28 07:39:35;;;;;;;41.42;20.67;;;;;;;;;;5100214;27;20088;-76
2023/02/28 07:42:04;;;;;;;43.50;17.92;;;;;;;;;;5100746;27;20371;-75
2023/02/28 07:44:30;;;;;;;45.47;13.45;;;;;;;;;;5100515;27;20196;-76
2023/02/28 07:46:57;;;;;;;35.83;12.27;;;;;;;;;;5102757;27;20095;-76
2023/02/28 07:49:23;;;;;;;37.85;13.30;;;;;;;;;;5101771;27;20520;-76
2023/02/28 07:51:49;;;;;;;44.08;12.70;;;;;;;;;;5102002;27;20604;-75
2023/02/28 07:54:15;;;;;;;34.83;11.05;;;;;;;;;;5104807;27;20024;-78
2023/02/28 07:56:42;;;;;;;33.38;11.15;;;;;;;;;;5101781;27;20132;-76
2023/02/28 07:59:09;;;;;;;38.38;10.90;;;;;;;;;;5097697;27;20114;-76
2023/02/28 08:01:35;;;;;;;31.48;10.68;;;;;;;;;;5103710;27;20019;-77
2023/02/28 08:04:01;;;;;;;36.80;10.43;;;;;;;;;;5100822;27;20143;-76
2023/02/28 08:06:27;;;;;;;36.35;10.40;;;;;;;;;;5102114;27;20043;-77
2023/02/28 08:08:55;;;;;;;40.00;10.05;;;;;;;;;;5104804;27;20030;-77
2023/02/28 08:11:22;;;;;;;25.45;8.43;;;;;;;;;;5103589;27;20019;-77
2023/02/28 08:13:48;;;;;;;38.38;9.35;;;;;;;;;;5102564;27;20047;-79
2023/02/28 08:16:17;;;;;;;43.95;8.98;;;;;;;;;;5102602;27;20106;-78
2023/02/28 08:18:43;;;;;;;38.72;8.13;;;;;;;;;;5104095;27;20031;-79
2023/02/28 08:21:12;;;;;;;40.13;7.55;;;;;;;;;;5097910;27;20483;-86
2023/02/28 08:23:38;;;;;;;29.92;6.53;;;;;;;;;;5096396;27;20023;-83
2023/02/28 08:26:05;;;;;;;32.00;6.57;;;;;;;;;;5108491;27;20019;-83
2023/02/28 08:28:34;;;;;;;30.58;7.35;;;;;;;;;;5105702;27;20028;-82
2023/02/28 08:31:10;;;;;;;35.33;6.28;;;;;;;;;;5097689;27;20028;-82
2023/02/28 08:33:37;;;;;;;29.33;5.95;;;;;;;;;;5087612;28;20372;-81
2023/02/28 08:36:03;;;;;;;24.52;7.25;;;;;;;;;;5104910;27;20034;-80
2023/02/28 08:38:29;;;;;;;42.85;8.25;;;;;;;;;;5100435;27;20119;-81
2023/02/28 08:41:02;;;;;;;33.33;6.63;;;;;;;;;;5101047;27;20035;-83
2023/02/28 08:43:28;;;;;;;30.88;6.95;;;;;;;;;;5098697;27;20023;-83
2023/02/28 08:45:58;;;;;;;33.28;6.22;;;;;;;;;;5102104;27;20103;-84
2023/02/28 08:48:25;;;;;;;42.50;6.68;;;;;;;;;;5104911;27;20062;-81
2023/02/28 08:51:09;;;;;;;34.28;5.97;;;;;;;;;;5103328;27;20026;-80
2023/02/28 08:53:36;;;;;;;34.08;6.65;;;;;;;;;;5093297;28;20506;-81
2023/02/28 08:56:04;;;;;;;31.75;5.50;;;;;;;;;;5104673;27;20639;-83
2023/02/28 08:58:30;;;;;;;30.80;5.53;;;;;;;;;;5104141;28;20044;-81
2023/02/28 09:00:56;;;;;;;25.17;4.88;;;;;;;;;;5102067;28;20034;-81
2023/02/28 09:03:26;;;;;;;25.27;4.68;;;;;;;;;;5098334;28;20027;-82
2023/02/28 09:06:07;;;;;;;21.05;5.72;;;;;;;;;;5097716;28;20032;-83
2023/02/28 09:08:34;;;;;;;29.23;6.35;;;;;;;;;;5104595;28;20070;-82
2023/02/28 09:11:01;;;;;;;30.83;4.45;;;;;;;;;;5100372;28;20031;-83
2023/02/28 09:13:27;;;;;;;31.45;4.97;;;;;;;;;;5108587;27;20025;-84
2023/02/28 09:15:54;;;;;;;37.35;5.95;;;;;;;;;;5106474;27;20031;-82
2023/02/28 09:18:20;;;;;;;25.13;5.55;;;;;;;;;;5113787;27;20031;-79
2023/02/28 09:20:47;;;;;;;24.20;4.53;;;;;;;;;;5107351;27;20031;-80
2023/02/28 09:23:13;;;;;;;27.13;4.60;;;;;;;;;;5107146;27;20333;-80
2023/02/28 09:25:46;;;;;;;22.67;4.30;;;;;;;;;;5112945;27;20367;-82
2023/02/28 09:28:21;;;;;;;22.92;4.38;;;;;;;;;;5103800;27;20030;-83
2023/02/28 09:30:49;;;;;;;15.57;4.30;;;;;;;;;;5105968;27;20174;-82
2023/02/28 09:33:16;;;;;;;25.17;3.40;;;;;;;;;;5105256;27;20505;-79
2023/02/28 09:35:44;;;;;;;19.23;4.03;;;;;;;;;;5102207;27;20023;-78
2023/02/28 09:38:11;;;;;;;24.45;3.85;;;;;;;;;;5100658;27;20119;-80
2023/02/28 09:40:39;;;;;;;28.20;4.65;;;;;;;;;;5103381;27;20140;-79
2023/02/28 09:43:05;;;;;;;16.45;3.33;;;;;;;;;;5107068;27;20026;-79
2023/02/28 09:45:32;;;;;;;20.58;3.88;;;;;;;;;;5092611;28;20035;-80
2023/02/28 09:48:15;;;;;;;19.15;4.28;;;;;;;;;;5108331;27;20028;-78
2023/02/28 09:50:44;;;;;;;25.50;5.20;;;;;;;;;;5097129;27;20032;-80
2023/02/28 09:53:22;;;;;;;24.50;4.97;;;;;;;;;;5103823;27;20030;-79
2023/02/28 09:55:50;;;;;;;30.05;4.93;;;;;;;;;;5094512;27;20082;-79
2023/02/28 09:58:37;;;;;;;35.58;5.70;;;;;;;;;;5111112;27;20405;-78
2023/02/28 10:01:08;;;;;;;25.50;4.50;;;;;;;;;;5091551;27;20066;-78
2023/02/28 10:03:50;;;;;;;;;;;;;;;;;;;;;
2023/02/28 10:06:18;;;;;;;17.58;3.25;;;;;;;;;;5109948;27;20053;-78
2023/02/28 10:09:05;;;;;;;18.75;4.68;;;;;;;;;;5102377;27;20058;-77
2023/02/28 10:11:33;;;;;;;15.10;3.78;;;;;;;;;;5102988;27;20604;-79
2023/02/28 10:14:02;;;;;;;21.10;4.10;;;;;;;;;;5101680;27;20412;-75
2023/02/28 10:16:41;;;;;;;22.80;4.25;;;;;;;;;;5105307;27;20104;-80
2023/02/28 10:19:14;;;;;;;12.95;3.15;;;;;;;;;;5095005;27;20040;-78
2023/02/28 10:21:46;;;;;;;19.88;4.05;;;;;;;;;;5111804;27;20027;-79
2023/02/28 10:24:28;;;;;;;22.92;3.75;;;;;;;;;;5103096;27;20075;-83
2023/02/28 10:26:59;;;;;;;24.58;5.85;;;;;;;;;;5103945;27;20157;-77
2023/02/28 10:29:26;;;;;;;27.50;4.47;;;;;;;;;;5104305;27;20490;-77
2023/02/28 10:31:52;;;;;;;25.05;4.65;;;;;;;;;;5104204;27;20111;-78
2023/02/28 10:34:18;;;;;;;35.30;5.68;;;;;;;;;;5102627;27;20153;-78
2023/02/28 10:36:45;;;;;;;26.23;4.68;;;;;;;;;;5103664;27;20916;-78
2023/02/28 10:39:31;;;;;;;29.42;4.55;;;;;;;;;;5108162;27;20085;-78
2023/02/28 10:41:57;;;;;;;15.23;3.63;;;;;;;;;;5098686;27;20410;-78
2023/02/28 10:44:24;;;;;;;18.63;3.47;;;;;;;;;;5104521;27;20181;-79
2023/02/28 10:46:51;;;;;;;23.27;4.20;;;;;;;;;;5103366;27;20240;-79
2023/02/28 10:49:24;;;;;;;17.75;3.83;;;;;;;;;;5093467;28;20038;-78
2023/02/28 10:51:56;;;;;;;23.27;5.32;;;;;;;;;;5104472;27;20051;-78
2023/02/28 10:54:25;;;;;;;19.17;3.85;;;;;;;;;;5099796;27;20027;-78
2023/02/28 10:57:06;;;;;;;13.77;2.35;;;;;;;;;;5100443;27;20050;-78
2023/02/28 10:59:33;;;;;;;11.10;2.65;;;;;;;;;;5111815;27;20810;-77
2023/02/28 11:01:59;;;;;;;10.07;2.45;;;;;;;;;;5107057;27;20076;-79
2023/02/28 11:04:41;;;;;;;10.13;2.00;;;;;;;;;;5109542;27;20027;-78
2023/02/28 11:07:21;;;;;;;5.70;2.00;;;;;;;;;;5108367;27;20032;-78
2023/02/28 11:09:49;;;;;;;4.85;1.40;;;;;;;;;;5111138;27;20035;-78
2023/02/28 11:12:30;;;;;;;8.40;2.17;;;;;;;;;;5103319;27;20028;-79
2023/02/28 11:15:02;;;;;;;6.55;1.98;;;;;;;;;;5101139;27;20372;-77
2023/02/28 11:17:29;;;;;;;10.02;1.90;;;;;;;;;;5107293;27;20107;-77
2023/02/28 11:20:07;;;;;;;12.65;2.25;;;;;;;;;;5107028;27;20534;-80
2023/02/28 11:22:38;;;;;;;13.35;2.38;;;;;;;;;;5097176;27;20545;-79
2023/02/28 11:25:30;;;;;;;10.02;3.03;;;;;;;;;;5097294;27;20030;-77
2023/02/28 11:28:00;;;;;;;6.03;1.73;;;;;;;;;;5090650;27;20038;-78
2023/02/28 11:30:36;;;;;;;7.45;2.45;;;;;;;;;;5099288;27;20877;-78
2023/02/28 11:33:21;;;;;;;9.48;2.30;;;;;;;;;;5101164;27;20039;-78
2023/02/28 11:35:48;;;;;;;7.63;2.40;;;;;;;;;;5107407;27;20395;-77
2023/02/28 11:38:15;;;;;;;6.30;2.13;;;;;;;;;;5104787;27;20562;-77
2023/02/28 11:40:52;;;;;;;8.93;3.47;;;;;;;;;;5098475;27;20031;-77
2023/02/28 11:43:28;;;;;;;8.50;3.10;;;;;;;;;;5106942;27;20031;-78
2023/02/28 11:46:00;;;;;;;8.18;1.80;;;;;;;;;;5099730;27;20024;-78
2023/02/28 11:48:26;;;;;;;;;;;;;;;;;;5095161;27;20024;-79
2023/02/28 11:51:13;;;;;;;7.15;2.10;;;;;;;;;;5098434;27;20440;-78
2023/02/28 11:53:51;;;;;;;10.95;2.50;;;;;;;;;;5101055;27;20023;-78
2023/02/28 11:56:23;;;;;;;8.32;1.75;;;;;;;;;;5099807;27;20027;-78
2023/02/28 11:59:03;;;;;;;8.95;2.20;;;;;;;;;;5094945;27;20043;-78
2023/02/28 12:01:41;;;;;;;14.45;2.75;;;;;;;;;;5100157;27;20027;-78
2023/02/28 12:04:14;;;;;;;13.77;2.80;;;;;;;;;;5094050;27;20024;-78
2023/02/28 12:06:43;;;;;;;5.82;2.30;;;;;;;;;;5099671;27;20020;-79
2023/02/28 12:09:35;;;;;;;13.30;3.20;;;;;;;;;;5101392;27;20114;-78
2023/02/28 12:12:16;;;;;;;10.88;3.35;;;;;;;;;;5093649;28;20535;-78
2023/02/28 12:15:00;;;;;;;13.80;3.53;;;;;;;;;;5096681;27;20428;-79
2023/02/28 12:17:40;;;;;;;9.20;2.88;;;;;;;;;;5096689;27;20035;-78
2023/02/28 12:20:18;;;;;;;15.75;2.90;;;;;;;;;;5096579;27;20042;-78
2023/02/28 12:23:03;;;;;;;8.10;2.88;;;;;;;;;;5097451;27;20034;-79
2023/02/28 12:25:56;;;;;;;13.40;3.45;;;;;;;;;;5103096;27;20030;-78
2023/02/28 12:28:26;;;;;;;10.02;2.92;;;;;;;;;;5096308;27;20084;-78
2023/02/28 12:30:58;;;;;;;11.60;2.97;;;;;;;;;;5105312;27;20038;-78
2023/02/28 12:33:27;;;;;;;15.10;3.03;;;;;;;;;;5097314;27;20066;-78
2023/02/28 12:35:55;;;;;;;9.75;2.60;;;;;;;;;;5102876;27;20157;-77
2023/02/28 12:38:24;;;;;;;15.40;2.83;;;;;;;;;;5101705;27;20040;-78
2023/02/28 12:40:57;;;;;;;13.82;3.08;;;;;;;;;;5103687;27;20023;-77
2023/02/28 12:43:28;;;;;;;14.60;2.90;;;;;;;;;;5094768;28;20106;-76
2023/02/28 12:45:56;;;;;;;6.38;2.83;;;;;;;;;;5107924;27;20106;-77
2023/02/28 12:48:31;;;;;;;19.52;3.70;;;;;;;;;;5100814;27;20035;-79
2023/02/28 12:50:59;;;;;;;16.05;3.00;;;;;;;;;;5106806;27;20107;-79
2023/02/28 12:53:36;;;;;;;12.73;3.78;;;;;;;;;;5109556;28;20024;-79
2023/02/28 12:56:25;;;;;;;12.00;3.55;;;;;;;;;;5097308;28;20687;-78
2023/02/28 12:58:58;;;;;;;14.73;3.03;;;;;;;;;;5105231;27;20043;-77
2023/02/28 13:01:30;;;;;;;23.38;3.17;;;;;;;;;;5108478;27;20087;-78
2023/02/28 13:04:15;;;;;;;17.63;3.47;;;;;;;;;;5090371;28;20028;-78
2023/02/28 13:06:52;;;;;;;10.13;2.83;;;;;;;;;;5094046;28;20110;-78
2023/02/28 13:09:19;;;;;;;17.58;3.45;;;;;;;;;;5098700;28;20873;-77
2023/02/28 13:11:52;;;;;;;14.73;2.78;;;;;;;;;;5089355;28;20024;-78
2023/02/28 13:14:25;;;;;;;22.00;3.75;;;;;;;;;;5106322;28;20065;-77
2023/02/28 13:17:09;;;;;;;11.07;2.92;;;;;;;;;;5096657;28;20031;-78
2023/02/28 13:19:44;;;;;;;18.70;3.85;;;;;;;;;;5106368;28;20031;-77
2023/02/28 13:22:19;;;;;;;10.50;3.55;;;;;;;;;;5102362;28;20024;-77
2023/02/28 13:24:47;;;;;;;16.92;4.32;;;;;;;;;;5094781;27;20027;-77
2023/02/28 13:27:24;;;;;;;12.38;3.05;;;;;;;;;;5096302;28;20066;-77
2023/02/28 13:29:50;;;;;;;12.90;3.00;;;;;;;;;;5096529;28;20111;-77
2023/02/28 13:32:29;;;;;;;22.85;3.10;;;;;;;;;;5092123;27;20020;-78
2023/02/28 13:34:55;;;;;;;15.38;2.45;;;;;;;;;;5103130;28;20566;-78
2023/02/28 13:37:21;;;;;;;14.15;3.13;;;;;;;;;;5093049;28;20066;-77
2023/02/28 13:39:53;;;;;;;17.30;2.30;;;;;;;;;;5105297;28;20054;-78
2023/02/28 13:42:31;;;;;;;16.55;3.13;;;;;;;;;;5103239;28;20031;-79
2023/02/28 13:45:06;;;;;;;11.35;2.17;;;;;;;;;;5104977;28;20045;-78
2023/02/28 13:47:49;;;;;;;18.27;3.00;;;;;;;;;;5099195;27;20065;-78
2023/02/28 13:50:15;;;;;;;;;;;;;;;;;;5101782;28;20416;-78
2023/02/28 13:53:00;;;;;;;9.65;1.67;;;;;;;;;;5098063;28;19912;-78
2023/02/28 13:55:50;;;;;;;12.82;2.15;;;;;;;;;;5102720;28;20032;-78
2023/02/28 13:58:35;;;;;;;11.38;2.17;;;;;;;;;;5093041;28;20048;-77
2023/02/28 14:01:09;;;;;;;9.20;1.90;;;;;;;;;;5109734;27;20581;-78
2023/02/28 14:03:35;;;;;;;9.15;1.83;;;;;;;;;;5105480;27;20038;-78
2023/02/28 14:06:24;;;;;;;9.05;1.63;;;;;;;;;;5108709;27;20699;-79
2023/02/28 14:08:57;;;;;;;7.97;1.83;;;;;;;;;;5102121;27;20030;-77
2023/02/28 14:11:28;;;;;;;14.45;2.65;;;;;;;;;;5099983;27;20034;-78
2023/02/28 14:13:54;;;;;;;13.33;3.33;;;;;;;;;;5106721;27;20591;-77
2023/02/28 14:16:22;;;;;;;14.02;2.00;;;;;;;;;;5110109;27;20019;-77
2023/02/28 14:19:03;;;;;;;11.40;2.03;;;;;;;;;;5109744;27;20034;-78
2023/02/28 14:21:29;;;;;;;21.27;3.17;;;;;;;;;;5109836;27;20023;-77
2023/02/28 14:24:02;;;;;;;18.50;1.98;;;;;;;;;;5105230;27;20039;-79
2023/02/28 14:26:33;;;;;;;20.77;3.00;;;;;;;;;;5116394;27;20027;-78
2023/02/28 14:29:18;;;;;;;15.63;2.60;;;;;;;;;;5116122;27;20034;-78
2023/02/28 14:31:48;;;;;;;18.13;2.28;;;;;;;;;;5108560;27;20058;-77
2023/02/28 14:34:33;;;;;;;21.20;2.40;;;;;;;;;;5106129;27;20050;-77
2023/02/28 14:37:02;;;;;;;20.13;2.17;;;;;;;;;;5106518;27;20051;-76
2023/02/28 14:39:30;;;;;;;30.15;3.45;;;;;;;;;;5098563;27;20050;-76
2023/02/28 14:42:02;;;;;;;14.93;3.75;;;;;;;;;;5102461;27;20019;-77
2023/02/28 14:44:30;;;;;;;20.38;2.70;;;;;;;;;;5103327;27;20027;-77
2023/02/28 14:46:57;;;;;;;20.67;3.33;;;;;;;;;;5104324;27;20023;-77
2023/02/28 14:49:27;;;;;;;21.88;3.33;;;;;;;;;;5100858;27;20035;-77
2023/02/28 14:52:23;;;;;;;21.20;2.67;;;;;;;;;;5109314;27;20037;-78
2023/02/28 14:54:54;;;;;;;18.55;2.80;;;;;;;;;;5087413;27;20036;-77
2023/02/28 14:57:27;;;;;;;16.80;2.42;;;;;;;;;;5103129;27;20040;-78